MMDO/DGO METAR and TAF weather

Enter ICAO airport designator
Station Type Date Time Source
MMDO METAR 2020/04/06 09:58 UTC NOAA

MMDO 060958Z RTD 19005KT 7SM SCT070 BKN200 13/02 A3019 RMK 8/038 RTS


Station Type Date Time Source
MMDO Decoded METAR 2020/04/06 09:58 UTC NOAA

Durango Airport, Mexico (MMDO) 24-08N 104-32W
Apr 06, 2020 - 05:58 AM EDT / 2020.04.06 0958 UTC
Wind: from the S (190 degrees) at 6 MPH (5 KT):0
Visibility: 7 mile(s):0
Sky conditions: mostly cloudy
Temperature: 55 F (13 C)
Dew Point: 35 F (2 C)
Relative Humidity: 47%
Pressure (altimeter): 30.19 in. Hg (1022 hPa)
ob: MMDO 060958Z RTD 19005KT 7SM SCT070 BKN200 13/02 A3019 RMK 8/038 RTS
cycle: 10

Station Type Date Time Source
MMDO TAF 2020/04/06 06:47 UTC NOAA

TAF MMDO 060442Z 0606/0706 20005KT P6SM OVC200
FM061800 20010KT P6SM BKN200
FM070300 20005KT P6SM BKN200

Example: see airport list